sensor_id;sensor_type;location;lat;lon;timestamp;P1;durP1;ratioP1;P2;durP2;ratioP2
67272;SDS011;54190;49.770;9.250;2023-07-13T00:01:47;3.53;;;2.20;;
67272;SDS011;54190;49.770;9.250;2023-07-13T00:04:19;3.30;;;2.20;;
67272;SDS011;54190;49.770;9.250;2023-07-13T00:06:46;3.50;;;2.30;;
67272;SDS011;54190;49.770;9.250;2023-07-13T00:09:12;2.90;;;2.23;;
67272;SDS011;54190;49.770;9.250;2023-07-13T00:11:42;5.90;;;2.40;;
67272;SDS011;54190;49.770;9.250;2023-07-13T00:14:09;3.10;;;2.37;;
67272;SDS011;54190;49.770;9.250;2023-07-13T00:16:36;5.70;;;2.23;;
67272;SDS011;54190;49.770;9.250;2023-07-13T00:19:03;3.17;;;2.10;;
67272;SDS011;54190;49.770;9.250;2023-07-13T00:21:29;3.33;;;2.50;;
67272;SDS011;54190;49.770;9.250;2023-07-13T00:23:55;3.30;;;2.10;;
67272;SDS011;54190;49.770;9.250;2023-07-13T00:26:21;2.97;;;2.00;;
67272;SDS011;54190;49.770;9.250;2023-07-13T00:28:47;3.50;;;2.30;;
67272;SDS011;54190;49.770;9.250;2023-07-13T00:31:13;4.80;;;2.63;;
67272;SDS011;54190;49.770;9.250;2023-07-13T00:33:42;4.90;;;2.10;;
67272;SDS011;54190;49.770;9.250;2023-07-13T00:36:08;4.83;;;2.30;;
67272;SDS011;54190;49.770;9.250;2023-07-13T00:38:34;3.70;;;2.73;;
67272;SDS011;54190;49.770;9.250;2023-07-13T00:41:00;6.23;;;2.60;;
67272;SDS011;54190;49.770;9.250;2023-07-13T00:43:28;6.57;;;2.50;;
67272;SDS011;54190;49.770;9.250;2023-07-13T00:48:25;2.90;;;2.10;;
67272;SDS011;54190;49.770;9.250;2023-07-13T00:50:56;4.30;;;2.50;;
67272;SDS011;54190;49.770;9.250;2023-07-13T00:53:25;3.67;;;1.97;;
67272;SDS011;54190;49.770;9.250;2023-07-13T00:55:52;4.33;;;2.30;;
67272;SDS011;54190;49.770;9.250;2023-07-13T00:58:20;9.73;;;2.50;;
67272;SDS011;54190;49.770;9.250;2023-07-13T01:00:46;3.93;;;2.03;;
67272;SDS011;54190;49.770;9.250;2023-07-13T01:03:13;3.20;;;2.00;;
67272;SDS011;54190;49.770;9.250;2023-07-13T01:05:40;7.13;;;2.23;;
67272;SDS011;54190;49.770;9.250;2023-07-13T01:08:06;2.93;;;2.07;;
67272;SDS011;54190;49.770;9.250;2023-07-13T01:10:33;6.20;;;2.77;;
67272;SDS011;54190;49.770;9.250;2023-07-13T01:13:04;3.30;;;2.20;;
67272;SDS011;54190;49.770;9.250;2023-07-13T01:18:21;4.00;;;2.43;;
67272;SDS011;54190;49.770;9.250;2023-07-13T01:20:53;6.00;;;2.23;;
67272;SDS011;54190;49.770;9.250;2023-07-13T01:23:19;4.00;;;2.00;;
67272;SDS011;54190;49.770;9.250;2023-07-13T01:25:45;3.73;;;2.23;;
67272;SDS011;54190;49.770;9.250;2023-07-13T01:28:11;4.70;;;2.80;;
67272;SDS011;54190;49.770;9.250;2023-07-13T01:30:38;3.50;;;2.33;;
67272;SDS011;54190;49.770;9.250;2023-07-13T01:33:08;7.00;;;2.70;;
67272;SDS011;54190;49.770;9.250;2023-07-13T01:35:34;3.53;;;1.87;;
67272;SDS011;54190;49.770;9.250;2023-07-13T01:38:01;3.10;;;2.10;;
67272;SDS011;54190;49.770;9.250;2023-07-13T01:40:27;4.27;;;2.70;;
67272;SDS011;54190;49.770;9.250;2023-07-13T01:42:54;3.87;;;2.30;;
67272;SDS011;54190;49.770;9.250;2023-07-13T01:45:19;4.90;;;2.47;;
67272;SDS011;54190;49.770;9.250;2023-07-13T01:47:46;4.70;;;2.53;;
67272;SDS011;54190;49.770;9.250;2023-07-13T01:50:12;8.50;;;2.67;;
67272;SDS011;54190;49.770;9.250;2023-07-13T01:52:38;4.77;;;2.53;;
67272;SDS011;54190;49.770;9.250;2023-07-13T01:55:03;4.80;;;2.10;;
67272;SDS011;54190;49.770;9.250;2023-07-13T01:57:29;5.63;;;2.37;;
67272;SDS011;54190;49.770;9.250;2023-07-13T01:59:55;5.40;;;2.60;;
67272;SDS011;54190;49.770;9.250;2023-07-13T02:02:21;3.70;;;2.57;;
67272;SDS011;54190;49.770;9.250;2023-07-13T02:04:46;3.67;;;2.70;;
67272;SDS011;54190;49.770;9.250;2023-07-13T02:07:12;6.63;;;2.37;;
67272;SDS011;54190;49.770;9.250;2023-07-13T02:09:40;3.40;;;2.17;;
67272;SDS011;54190;49.770;9.250;2023-07-13T02:12:07;3.77;;;2.37;;
67272;SDS011;54190;49.770;9.250;2023-07-13T02:14:33;4.80;;;2.50;;
67272;SDS011;54190;49.770;9.250;2023-07-13T02:16:59;4.30;;;2.20;;
67272;SDS011;54190;49.770;9.250;2023-07-13T02:19:24;4.20;;;2.53;;
67272;SDS011;54190;49.770;9.250;2023-07-13T02:21:50;3.53;;;2.37;;
67272;SDS011;54190;49.770;9.250;2023-07-13T02:24:16;7.17;;;2.57;;
67272;SDS011;54190;49.770;9.250;2023-07-13T02:26:44;7.03;;;2.57;;
67272;SDS011;54190;49.770;9.250;2023-07-13T02:29:10;4.00;;;2.57;;
67272;SDS011;54190;49.770;9.250;2023-07-13T02:31:36;3.60;;;2.60;;
67272;SDS011;54190;49.770;9.250;2023-07-13T02:34:02;7.27;;;3.00;;
67272;SDS011;54190;49.770;9.250;2023-07-13T02:36:29;4.90;;;2.70;;
67272;SDS011;54190;49.770;9.250;2023-07-13T02:38:55;4.60;;;2.70;;
67272;SDS011;54190;49.770;9.250;2023-07-13T02:41:21;5.57;;;2.57;;
67272;SDS011;54190;49.770;9.250;2023-07-13T02:43:48;5.47;;;2.43;;
67272;SDS011;54190;49.770;9.250;2023-07-13T02:46:14;6.17;;;2.60;;
67272;SDS011;54190;49.770;9.250;2023-07-13T02:48:39;7.30;;;2.73;;
67272;SDS011;54190;49.770;9.250;2023-07-13T02:51:05;3.50;;;2.30;;
67272;SDS011;54190;49.770;9.250;2023-07-13T02:53:32;6.00;;;2.60;;
67272;SDS011;54190;49.770;9.250;2023-07-13T02:55:58;3.77;;;2.80;;
67272;SDS011;54190;49.770;9.250;2023-07-13T02:58:24;4.20;;;2.80;;
67272;SDS011;54190;49.770;9.250;2023-07-13T03:00:51;4.50;;;2.60;;
67272;SDS011;54190;49.770;9.250;2023-07-13T03:03:17;3.13;;;2.20;;
67272;SDS011;54190;49.770;9.250;2023-07-13T03:05:43;4.70;;;2.73;;
67272;SDS011;54190;49.770;9.250;2023-07-13T03:08:10;5.37;;;3.23;;
67272;SDS011;54190;49.770;9.250;2023-07-13T03:10:37;9.97;;;2.83;;
67272;SDS011;54190;49.770;9.250;2023-07-13T03:13:07;5.30;;;3.40;;
67272;SDS011;54190;49.770;9.250;2023-07-13T03:15:33;4.40;;;2.40;;
67272;SDS011;54190;49.770;9.250;2023-07-13T03:17:58;3.90;;;2.67;;
67272;SDS011;54190;49.770;9.250;2023-07-13T03:20:24;5.20;;;2.53;;
67272;SDS011;54190;49.770;9.250;2023-07-13T03:22:50;4.67;;;2.67;;
67272;SDS011;54190;49.770;9.250;2023-07-13T03:25:17;8.10;;;2.63;;
67272;SDS011;54190;49.770;9.250;2023-07-13T03:27:43;4.90;;;2.97;;
67272;SDS011;54190;49.770;9.250;2023-07-13T03:30:08;3.87;;;2.67;;
67272;SDS011;54190;49.770;9.250;2023-07-13T03:32:35;3.13;;;2.50;;
67272;SDS011;54190;49.770;9.250;2023-07-13T03:35:00;5.20;;;2.90;;
67272;SDS011;54190;49.770;9.250;2023-07-13T03:37:28;6.90;;;3.10;;
67272;SDS011;54190;49.770;9.250;2023-07-13T03:39:54;3.60;;;2.60;;
67272;SDS011;54190;49.770;9.250;2023-07-13T03:42:20;5.80;;;2.83;;
67272;SDS011;54190;49.770;9.250;2023-07-13T03:44:45;3.33;;;2.57;;
67272;SDS011;54190;49.770;9.250;2023-07-13T03:47:17;5.37;;;3.37;;
67272;SDS011;54190;49.770;9.250;2023-07-13T03:49:43;6.17;;;3.17;;
67272;SDS011;54190;49.770;9.250;2023-07-13T03:52:11;4.73;;;2.70;;
67272;SDS011;54190;49.770;9.250;2023-07-13T03:54:36;4.80;;;2.90;;
67272;SDS011;54190;49.770;9.250;2023-07-13T03:57:02;5.93;;;2.57;;
67272;SDS011;54190;49.770;9.250;2023-07-13T03:59:30;4.83;;;2.50;;
67272;SDS011;54190;49.770;9.250;2023-07-13T04:01:56;6.53;;;3.40;;
67272;SDS011;54190;49.770;9.250;2023-07-13T04:04:22;6.10;;;3.00;;
67272;SDS011;54190;49.770;9.250;2023-07-13T04:06:47;5.43;;;2.87;;
67272;SDS011;54190;49.770;9.250;2023-07-13T04:09:13;6.47;;;3.40;;
67272;SDS011;54190;49.770;9.250;2023-07-13T04:11:38;6.00;;;3.10;;
67272;SDS011;54190;49.770;9.250;2023-07-13T04:14:05;10.07;;;3.10;;
67272;SDS011;54190;49.770;9.250;2023-07-13T04:16:32;5.73;;;3.70;;
67272;SDS011;54190;49.770;9.250;2023-07-13T04:18:58;5.00;;;3.00;;
67272;SDS011;54190;49.770;9.250;2023-07-13T04:21:25;6.47;;;2.70;;
67272;SDS011;54190;49.770;9.250;2023-07-13T04:23:55;6.03;;;2.97;;
67272;SDS011;54190;49.770;9.250;2023-07-13T04:26:21;4.83;;;2.80;;
67272;SDS011;54190;49.770;9.250;2023-07-13T04:28:47;4.83;;;3.03;;
67272;SDS011;54190;49.770;9.250;2023-07-13T04:31:14;4.20;;;3.00;;
67272;SDS011;54190;49.770;9.250;2023-07-13T04:33:39;6.33;;;3.40;;
67272;SDS011;54190;49.770;9.250;2023-07-13T04:36:05;9.57;;;3.30;;
67272;SDS011;54190;49.770;9.250;2023-07-13T04:38:31;4.87;;;3.30;;
67272;SDS011;54190;49.770;9.250;2023-07-13T04:41:00;6.83;;;3.87;;
67272;SDS011;54190;49.770;9.250;2023-07-13T04:43:27;5.20;;;3.30;;
67272;SDS011;54190;49.770;9.250;2023-07-13T04:45:53;7.53;;;3.20;;
67272;SDS011;54190;49.770;9.250;2023-07-13T04:48:19;6.97;;;3.10;;
67272;SDS011;54190;49.770;9.250;2023-07-13T04:50:45;4.77;;;3.33;;
67272;SDS011;54190;49.770;9.250;2023-07-13T04:53:12;4.13;;;2.90;;
67272;SDS011;54190;49.770;9.250;2023-07-13T04:55:37;6.27;;;3.17;;
67272;SDS011;54190;49.770;9.250;2023-07-13T04:58:03;4.80;;;3.27;;
67272;SDS011;54190;49.770;9.250;2023-07-13T05:00:29;6.60;;;3.50;;
67272;SDS011;54190;49.770;9.250;2023-07-13T05:02:55;4.70;;;2.93;;
67272;SDS011;54190;49.770;9.250;2023-07-13T05:05:22;6.50;;;2.93;;
67272;SDS011;54190;49.770;9.250;2023-07-13T05:07:51;4.90;;;3.00;;
67272;SDS011;54190;49.770;9.250;2023-07-13T05:10:18;6.60;;;3.20;;
67272;SDS011;54190;49.770;9.250;2023-07-13T05:12:44;5.30;;;3.50;;
67272;SDS011;54190;49.770;9.250;2023-07-13T05:15:09;6.73;;;3.60;;
67272;SDS011;54190;49.770;9.250;2023-07-13T05:17:36;5.27;;;3.53;;
67272;SDS011;54190;49.770;9.250;2023-07-13T05:20:04;7.63;;;3.47;;
67272;SDS011;54190;49.770;9.250;2023-07-13T05:22:30;8.73;;;3.33;;
67272;SDS011;54190;49.770;9.250;2023-07-13T05:24:56;5.40;;;2.83;;
67272;SDS011;54190;49.770;9.250;2023-07-13T05:27:22;4.20;;;3.10;;
67272;SDS011;54190;49.770;9.250;2023-07-13T05:29:48;3.73;;;2.83;;
67272;SDS011;54190;49.770;9.250;2023-07-13T05:32:14;4.50;;;3.40;;
67272;SDS011;54190;49.770;9.250;2023-07-13T05:34:40;5.00;;;3.23;;
67272;SDS011;54190;49.770;9.250;2023-07-13T05:37:06;5.07;;;3.00;;
67272;SDS011;54190;49.770;9.250;2023-07-13T05:39:32;5.10;;;2.50;;
67272;SDS011;54190;49.770;9.250;2023-07-13T05:41:58;4.70;;;2.93;;
67272;SDS011;54190;49.770;9.250;2023-07-13T05:44:23;4.90;;;2.90;;
67272;SDS011;54190;49.770;9.250;2023-07-13T05:46:49;4.30;;;2.63;;
67272;SDS011;54190;49.770;9.250;2023-07-13T05:49:15;7.90;;;3.33;;
67272;SDS011;54190;49.770;9.250;2023-07-13T05:51:40;6.40;;;3.10;;
67272;SDS011;54190;49.770;9.250;2023-07-13T05:54:06;5.50;;;3.03;;
67272;SDS011;54190;49.770;9.250;2023-07-13T05:56:32;6.77;;;2.77;;
67272;SDS011;54190;49.770;9.250;2023-07-13T05:58:57;5.10;;;2.63;;
67272;SDS011;54190;49.770;9.250;2023-07-13T06:01:23;4.60;;;2.50;;
67272;SDS011;54190;49.770;9.250;2023-07-13T06:03:49;4.50;;;2.40;;
67272;SDS011;54190;49.770;9.250;2023-07-13T06:06:15;6.33;;;2.60;;
67272;SDS011;54190;49.770;9.250;2023-07-13T06:08:41;6.20;;;2.50;;
67272;SDS011;54190;49.770;9.250;2023-07-13T06:11:09;4.50;;;2.60;;
67272;SDS011;54190;49.770;9.250;2023-07-13T06:13:38;4.47;;;2.90;;
67272;SDS011;54190;49.770;9.250;2023-07-13T06:16:04;4.37;;;2.57;;
67272;SDS011;54190;49.770;9.250;2023-07-13T06:18:31;6.40;;;1.80;;
67272;SDS011;54190;49.770;9.250;2023-07-13T06:20:58;4.77;;;2.67;;
67272;SDS011;54190;49.770;9.250;2023-07-13T06:23:23;5.10;;;2.13;;
67272;SDS011;54190;49.770;9.250;2023-07-13T06:25:49;6.40;;;2.87;;
67272;SDS011;54190;49.770;9.250;2023-07-13T06:28:15;4.50;;;2.30;;
67272;SDS011;54190;49.770;9.250;2023-07-13T06:30:41;4.87;;;2.33;;
67272;SDS011;54190;49.770;9.250;2023-07-13T06:33:06;3.93;;;1.83;;
67272;SDS011;54190;49.770;9.250;2023-07-13T06:35:32;3.07;;;1.83;;
67272;SDS011;54190;49.770;9.250;2023-07-13T06:37:58;4.73;;;1.80;;
67272;SDS011;54190;49.770;9.250;2023-07-13T06:40:24;3.60;;;1.77;;
67272;SDS011;54190;49.770;9.250;2023-07-13T06:42:50;3.97;;;1.60;;
67272;SDS011;54190;49.770;9.250;2023-07-13T06:45:15;6.03;;;1.73;;
67272;SDS011;54190;49.770;9.250;2023-07-13T06:47:41;5.17;;;2.20;;
67272;SDS011;54190;49.770;9.250;2023-07-13T06:50:07;3.73;;;2.17;;
67272;SDS011;54190;49.770;9.250;2023-07-13T06:52:33;4.30;;;2.00;;
67272;SDS011;54190;49.770;9.250;2023-07-13T06:54:58;3.13;;;1.60;;
67272;SDS011;54190;49.770;9.250;2023-07-13T06:57:24;4.50;;;2.10;;
67272;SDS011;54190;49.770;9.250;2023-07-13T06:59:50;3.43;;;1.67;;
67272;SDS011;54190;49.770;9.250;2023-07-13T07:02:15;6.73;;;2.10;;
67272;SDS011;54190;49.770;9.250;2023-07-13T07:04:41;7.03;;;2.00;;
67272;SDS011;54190;49.770;9.250;2023-07-13T07:07:07;2.70;;;1.90;;
67272;SDS011;54190;49.770;9.250;2023-07-13T07:09:32;5.20;;;2.13;;
67272;SDS011;54190;49.770;9.250;2023-07-13T07:11:58;3.63;;;1.90;;
67272;SDS011;54190;49.770;9.250;2023-07-13T07:14:23;4.07;;;1.90;;
67272;SDS011;54190;49.770;9.250;2023-07-13T07:16:49;7.73;;;2.07;;
67272;SDS011;54190;49.770;9.250;2023-07-13T07:19:15;5.73;;;2.00;;
67272;SDS011;54190;49.770;9.250;2023-07-13T07:21:41;6.37;;;2.20;;
67272;SDS011;54190;49.770;9.250;2023-07-13T07:24:07;3.40;;;1.80;;
67272;SDS011;54190;49.770;9.250;2023-07-13T07:26:33;5.23;;;2.03;;
67272;SDS011;54190;49.770;9.250;2023-07-13T07:28:59;7.60;;;1.93;;
67272;SDS011;54190;49.770;9.250;2023-07-13T07:31:24;5.00;;;1.87;;
67272;SDS011;54190;49.770;9.250;2023-07-13T07:33:50;6.30;;;2.20;;
67272;SDS011;54190;49.770;9.250;2023-07-13T07:36:16;4.77;;;2.10;;
67272;SDS011;54190;49.770;9.250;2023-07-13T07:38:42;5.37;;;2.27;;
67272;SDS011;54190;49.770;9.250;2023-07-13T07:41:08;4.27;;;2.10;;
67272;SDS011;54190;49.770;9.250;2023-07-13T07:43:34;4.90;;;2.13;;
67272;SDS011;54190;49.770;9.250;2023-07-13T07:46:00;5.83;;;1.87;;
67272;SDS011;54190;49.770;9.250;2023-07-13T07:48:26;4.60;;;2.20;;
67272;SDS011;54190;49.770;9.250;2023-07-13T07:50:51;4.23;;;1.90;;
67272;SDS011;54190;49.770;9.250;2023-07-13T07:53:17;4.40;;;2.17;;
67272;SDS011;54190;49.770;9.250;2023-07-13T07:55:43;9.90;;;2.07;;
67272;SDS011;54190;49.770;9.250;2023-07-13T07:58:08;4.60;;;1.97;;
67272;SDS011;54190;49.770;9.250;2023-07-13T08:00:34;5.67;;;2.27;;
67272;SDS011;54190;49.770;9.250;2023-07-13T08:03:00;3.13;;;1.67;;
67272;SDS011;54190;49.770;9.250;2023-07-13T08:05:26;3.60;;;1.80;;
67272;SDS011;54190;49.770;9.250;2023-07-13T08:07:52;5.27;;;2.27;;
67272;SDS011;54190;49.770;9.250;2023-07-13T08:10:17;5.63;;;1.97;;
67272;SDS011;54190;49.770;9.250;2023-07-13T08:12:43;4.73;;;2.33;;
67272;SDS011;54190;49.770;9.250;2023-07-13T08:15:16;5.00;;;1.80;;
67272;SDS011;54190;49.770;9.250;2023-07-13T08:17:42;5.87;;;1.93;;
67272;SDS011;54190;49.770;9.250;2023-07-13T08:20:08;5.10;;;2.03;;
67272;SDS011;54190;49.770;9.250;2023-07-13T08:22:34;5.70;;;2.00;;
67272;SDS011;54190;49.770;9.250;2023-07-13T08:25:01;6.13;;;1.93;;
67272;SDS011;54190;49.770;9.250;2023-07-13T08:27:28;5.83;;;1.83;;
67272;SDS011;54190;49.770;9.250;2023-07-13T08:29:53;4.40;;;1.97;;
67272;SDS011;54190;49.770;9.250;2023-07-13T08:32:20;6.00;;;2.30;;
67272;SDS011;54190;49.770;9.250;2023-07-13T08:34:47;5.23;;;1.93;;
67272;SDS011;54190;49.770;9.250;2023-07-13T08:37:14;3.93;;;2.00;;
67272;SDS011;54190;49.770;9.250;2023-07-13T08:39:40;6.30;;;2.30;;
67272;SDS011;54190;49.770;9.250;2023-07-13T08:44:57;3.70;;;1.80;;
67272;SDS011;54190;49.770;9.250;2023-07-13T08:47:31;10.20;;;2.07;;
67272;SDS011;54190;49.770;9.250;2023-07-13T08:50:00;3.50;;;2.03;;
67272;SDS011;54190;49.770;9.250;2023-07-13T08:52:31;3.93;;;1.73;;
67272;SDS011;54190;49.770;9.250;2023-07-13T08:55:05;6.27;;;1.83;;
67272;SDS011;54190;49.770;9.250;2023-07-13T08:57:59;3.77;;;1.60;;
67272;SDS011;54190;49.770;9.250;2023-07-13T09:00:39;6.23;;;2.13;;
67272;SDS011;54190;49.770;9.250;2023-07-13T09:03:19;4.43;;;2.10;;
67272;SDS011;54190;49.770;9.250;2023-07-13T09:05:54;3.50;;;2.00;;
67272;SDS011;54190;49.770;9.250;2023-07-13T09:08:30;5.13;;;1.80;;
67272;SDS011;54190;49.770;9.250;2023-07-13T09:11:00;5.73;;;2.07;;
67272;SDS011;54190;49.770;9.250;2023-07-13T09:14:26;2.97;;;1.80;;
67272;SDS011;54190;49.770;9.250;2023-07-13T09:17:19;5.77;;;1.90;;
67272;SDS011;54190;49.770;9.250;2023-07-13T09:19:57;3.80;;;1.97;;
67272;SDS011;54190;49.770;9.250;2023-07-13T09:22:31;4.50;;;2.00;;
67272;SDS011;54190;49.770;9.250;2023-07-13T09:28:01;4.20;;;2.00;;
67272;SDS011;54190;49.770;9.250;2023-07-13T09:30:38;3.73;;;1.60;;
67272;SDS011;54190;49.770;9.250;2023-07-13T09:33:21;4.43;;;2.00;;
67272;SDS011;54190;49.770;9.250;2023-07-13T09:35:48;5.13;;;2.23;;
67272;SDS011;54190;49.770;9.250;2023-07-13T09:38:15;3.73;;;1.87;;
67272;SDS011;54190;49.770;9.250;2023-07-13T09:43:24;5.00;;;2.13;;
67272;SDS011;54190;49.770;9.250;2023-07-13T09:45:50;3.73;;;2.00;;
67272;SDS011;54190;49.770;9.250;2023-07-13T09:48:17;4.87;;;2.27;;
67272;SDS011;54190;49.770;9.250;2023-07-13T09:50:43;3.27;;;2.30;;
67272;SDS011;54190;49.770;9.250;2023-07-13T09:53:16;4.93;;;1.90;;
67272;SDS011;54190;49.770;9.250;2023-07-13T09:55:44;5.60;;;2.27;;
67272;SDS011;54190;49.770;9.250;2023-07-13T09:58:18;5.67;;;2.07;;
67272;SDS011;54190;49.770;9.250;2023-07-13T10:00:56;4.87;;;1.67;;
67272;SDS011;54190;49.770;9.250;2023-07-13T10:03:25;3.57;;;1.90;;
67272;SDS011;54190;49.770;9.250;2023-07-13T10:05:52;5.87;;;1.90;;
67272;SDS011;54190;49.770;9.250;2023-07-13T10:08:26;5.07;;;2.07;;
67272;SDS011;54190;49.770;9.250;2023-07-13T10:10:54;4.23;;;1.83;;
67272;SDS011;54190;49.770;9.250;2023-07-13T10:13:44;7.43;;;2.13;;
67272;SDS011;54190;49.770;9.250;2023-07-13T10:16:14;7.20;;;2.37;;
67272;SDS011;54190;49.770;9.250;2023-07-13T10:18:48;4.13;;;2.03;;
67272;SDS011;54190;49.770;9.250;2023-07-13T10:21:20;4.23;;;1.83;;
67272;SDS011;54190;49.770;9.250;2023-07-13T10:23:49;7.00;;;1.90;;
67272;SDS011;54190;49.770;9.250;2023-07-13T10:26:23;3.67;;;1.97;;
67272;SDS011;54190;49.770;9.250;2023-07-13T10:28:53;3.93;;;1.90;;
67272;SDS011;54190;49.770;9.250;2023-07-13T10:31:20;2.87;;;1.70;;
67272;SDS011;54190;49.770;9.250;2023-07-13T10:33:47;5.53;;;2.30;;
67272;SDS011;54190;49.770;9.250;2023-07-13T10:36:17;3.90;;;1.83;;
67272;SDS011;54190;49.770;9.250;2023-07-13T10:38:55;3.20;;;1.70;;
67272;SDS011;54190;49.770;9.250;2023-07-13T10:41:23;4.77;;;2.20;;
67272;SDS011;54190;49.770;9.250;2023-07-13T10:43:52;5.67;;;1.93;;
67272;SDS011;54190;49.770;9.250;2023-07-13T10:46:20;3.93;;;1.97;;
67272;SDS011;54190;49.770;9.250;2023-07-13T10:48:49;3.30;;;2.13;;
67272;SDS011;54190;49.770;9.250;2023-07-13T10:51:19;5.03;;;1.70;;
67272;SDS011;54190;49.770;9.250;2023-07-13T10:53:46;6.60;;;2.13;;
67272;SDS011;54190;49.770;9.250;2023-07-13T10:56:28;5.67;;;1.60;;
67272;SDS011;54190;49.770;9.250;2023-07-13T10:59:01;4.90;;;2.00;;
67272;SDS011;54190;49.770;9.250;2023-07-13T11:04:28;3.83;;;1.97;;
67272;SDS011;54190;49.770;9.250;2023-07-13T11:07:11;2.83;;;2.00;;
67272;SDS011;54190;49.770;9.250;2023-07-13T11:09:44;4.33;;;2.10;;
67272;SDS011;54190;49.770;9.250;2023-07-13T11:25:31;3.30;;;2.03;;
67272;SDS011;54190;49.770;9.250;2023-07-13T11:30:37;2.97;;;1.73;;
67272;SDS011;54190;49.770;9.250;2023-07-13T11:41:19;4.00;;;2.00;;
67272;SDS011;54190;49.770;9.250;2023-07-13T11:43:55;4.03;;;1.63;;
67272;SDS011;54190;49.770;9.250;2023-07-13T11:46:29;3.40;;;1.80;;
67272;SDS011;54190;49.770;9.250;2023-07-13T11:48:55;3.20;;;2.10;;
67272;SDS011;54190;49.770;9.250;2023-07-13T11:51:22;5.10;;;2.07;;
67272;SDS011;54190;49.770;9.250;2023-07-13T11:53:54;4.50;;;2.47;;
67272;SDS011;54190;49.770;9.250;2023-07-13T11:56:22;3.70;;;2.10;;
67272;SDS011;54190;49.770;9.250;2023-07-13T11:58:52;5.90;;;2.07;;
67272;SDS011;54190;49.770;9.250;2023-07-13T12:01:21;3.13;;;1.70;;
67272;SDS011;54190;49.770;9.250;2023-07-13T12:03:49;3.20;;;1.80;;
67272;SDS011;54190;49.770;9.250;2023-07-13T12:06:21;4.57;;;2.40;;
67272;SDS011;54190;49.770;9.250;2023-07-13T12:09:03;4.87;;;2.10;;
67272;SDS011;54190;49.770;9.250;2023-07-13T12:11:38;4.60;;;1.90;;
67272;SDS011;54190;49.770;9.250;2023-07-13T12:14:12;4.43;;;1.80;;
67272;SDS011;54190;49.770;9.250;2023-07-13T12:16:40;3.70;;;1.70;;
67272;SDS011;54190;49.770;9.250;2023-07-13T12:19:09;4.50;;;1.60;;
67272;SDS011;54190;49.770;9.250;2023-07-13T12:21:52;3.50;;;1.83;;
67272;SDS011;54190;49.770;9.250;2023-07-13T12:24:21;3.43;;;1.90;;
67272;SDS011;54190;49.770;9.250;2023-07-13T12:26:51;4.63;;;2.20;;
67272;SDS011;54190;49.770;9.250;2023-07-13T12:29:18;5.07;;;1.97;;
67272;SDS011;54190;49.770;9.250;2023-07-13T12:31:45;4.13;;;2.07;;
67272;SDS011;54190;49.770;9.250;2023-07-13T12:34:13;3.20;;;1.80;;
67272;SDS011;54190;49.770;9.250;2023-07-13T12:36:49;3.23;;;2.00;;
67272;SDS011;54190;49.770;9.250;2023-07-13T12:39:19;5.10;;;2.30;;
67272;SDS011;54190;49.770;9.250;2023-07-13T12:44:54;3.80;;;1.90;;
67272;SDS011;54190;49.770;9.250;2023-07-13T12:47:27;3.87;;;2.00;;
67272;SDS011;54190;49.770;9.250;2023-07-13T12:49:54;3.00;;;1.97;;
67272;SDS011;54190;49.770;9.250;2023-07-13T12:52:22;6.10;;;1.87;;
67272;SDS011;54190;49.770;9.250;2023-07-13T12:54:55;3.53;;;1.87;;
67272;SDS011;54190;49.770;9.250;2023-07-13T12:57:23;5.00;;;2.20;;
67272;SDS011;54190;49.770;9.250;2023-07-13T12:59:51;2.63;;;1.60;;
67272;SDS011;54190;49.770;9.250;2023-07-13T13:02:31;4.23;;;2.00;;
67272;SDS011;54190;49.770;9.250;2023-07-13T13:05:00;3.20;;;1.90;;
67272;SDS011;54190;49.770;9.250;2023-07-13T13:07:28;2.90;;;1.63;;
67272;SDS011;54190;49.770;9.250;2023-07-13T13:09:54;2.50;;;1.60;;
67272;SDS011;54190;49.770;9.250;2023-07-13T13:12:21;3.53;;;1.90;;
67272;SDS011;54190;49.770;9.250;2023-07-13T13:14:50;4.57;;;2.00;;
67272;SDS011;54190;49.770;9.250;2023-07-13T13:17:19;4.77;;;2.10;;
67272;SDS011;54190;49.770;9.250;2023-07-13T13:19:49;5.20;;;1.97;;
67272;SDS011;54190;49.770;9.250;2023-07-13T13:22:15;2.83;;;2.13;;
67272;SDS011;54190;49.770;9.250;2023-07-13T13:24:40;4.30;;;2.00;;
67272;SDS011;54190;49.770;9.250;2023-07-13T13:27:09;4.83;;;2.00;;
67272;SDS011;54190;49.770;9.250;2023-07-13T13:29:46;4.03;;;2.40;;
67272;SDS011;54190;49.770;9.250;2023-07-13T13:32:12;7.50;;;2.90;;
67272;SDS011;54190;49.770;9.250;2023-07-13T13:34:39;5.13;;;3.00;;
67272;SDS011;54190;49.770;9.250;2023-07-13T13:37:16;2.97;;;2.60;;
67272;SDS011;54190;49.770;9.250;2023-07-13T13:39:46;4.03;;;2.83;;
67272;SDS011;54190;49.770;9.250;2023-07-13T13:42:12;3.13;;;2.40;;
67272;SDS011;54190;49.770;9.250;2023-07-13T13:44:39;5.60;;;2.57;;
67272;SDS011;54190;49.770;9.250;2023-07-13T13:47:28;2.93;;;2.23;;
67272;SDS011;54190;49.770;9.250;2023-07-13T13:49:56;5.47;;;2.87;;
67272;SDS011;54190;49.770;9.250;2023-07-13T13:52:23;3.43;;;2.43;;
67272;SDS011;54190;49.770;9.250;2023-07-13T13:54:49;3.30;;;2.30;;
67272;SDS011;54190;49.770;9.250;2023-07-13T13:57:15;4.33;;;2.60;;
67272;SDS011;54190;49.770;9.250;2023-07-13T13:59:40;3.93;;;2.20;;
67272;SDS011;54190;49.770;9.250;2023-07-13T14:02:20;4.67;;;2.00;;
67272;SDS011;54190;49.770;9.250;2023-07-13T14:04:58;5.60;;;2.00;;
67272;SDS011;54190;49.770;9.250;2023-07-13T14:07:26;2.27;;;1.90;;
67272;SDS011;54190;49.770;9.250;2023-07-13T14:09:56;3.33;;;2.00;;
67272;SDS011;54190;49.770;9.250;2023-07-13T14:12:24;2.53;;;1.87;;
67272;SDS011;54190;49.770;9.250;2023-07-13T14:14:54;5.20;;;2.00;;
67272;SDS011;54190;49.770;9.250;2023-07-13T14:17:22;3.93;;;2.10;;
67272;SDS011;54190;49.770;9.250;2023-07-13T14:19:51;2.70;;;1.90;;
67272;SDS011;54190;49.770;9.250;2023-07-13T14:22:22;3.50;;;1.87;;
67272;SDS011;54190;49.770;9.250;2023-07-13T14:24:50;3.83;;;1.80;;
67272;SDS011;54190;49.770;9.250;2023-07-13T14:27:16;3.93;;;2.20;;
67272;SDS011;54190;49.770;9.250;2023-07-13T14:29:42;3.17;;;1.80;;
67272;SDS011;54190;49.770;9.250;2023-07-13T14:32:11;3.60;;;2.17;;
67272;SDS011;54190;49.770;9.250;2023-07-13T14:34:37;5.30;;;1.90;;
67272;SDS011;54190;49.770;9.250;2023-07-13T14:37:04;8.60;;;2.20;;
67272;SDS011;54190;49.770;9.250;2023-07-13T14:39:30;3.73;;;2.00;;
67272;SDS011;54190;49.770;9.250;2023-07-13T14:41:57;4.10;;;1.90;;
67272;SDS011;54190;49.770;9.250;2023-07-13T14:44:27;4.70;;;2.03;;
67272;SDS011;54190;49.770;9.250;2023-07-13T14:46:54;2.90;;;1.90;;
67272;SDS011;54190;49.770;9.250;2023-07-13T14:49:25;2.90;;;1.60;;
67272;SDS011;54190;49.770;9.250;2023-07-13T14:51:59;4.20;;;2.00;;
67272;SDS011;54190;49.770;9.250;2023-07-13T14:54:27;4.17;;;2.00;;
67272;SDS011;54190;49.770;9.250;2023-07-13T14:56:53;4.60;;;1.80;;
67272;SDS011;54190;49.770;9.250;2023-07-13T14:59:18;8.50;;;1.93;;
67272;SDS011;54190;49.770;9.250;2023-07-13T15:01:44;3.13;;;1.73;;
67272;SDS011;54190;49.770;9.250;2023-07-13T15:04:11;2.73;;;1.80;;
67272;SDS011;54190;49.770;9.250;2023-07-13T15:06:53;3.30;;;1.93;;
67272;SDS011;54190;49.770;9.250;2023-07-13T15:09:19;2.77;;;1.83;;
67272;SDS011;54190;49.770;9.250;2023-07-13T15:11:45;2.93;;;2.03;;
67272;SDS011;54190;49.770;9.250;2023-07-13T15:14:10;3.70;;;2.10;;
67272;SDS011;54190;49.770;9.250;2023-07-13T15:16:36;3.03;;;2.07;;
67272;SDS011;54190;49.770;9.250;2023-07-13T15:19:02;3.00;;;1.83;;
67272;SDS011;54190;49.770;9.250;2023-07-13T15:21:28;3.17;;;2.00;;
67272;SDS011;54190;49.770;9.250;2023-07-13T15:23:59;3.63;;;2.13;;
67272;SDS011;54190;49.770;9.250;2023-07-13T15:26:25;5.40;;;1.90;;
67272;SDS011;54190;49.770;9.250;2023-07-13T15:28:51;3.90;;;1.90;;
67272;SDS011;54190;49.770;9.250;2023-07-13T15:31:19;5.50;;;2.50;;
67272;SDS011;54190;49.770;9.250;2023-07-13T15:33:47;3.40;;;1.93;;
67272;SDS011;54190;49.770;9.250;2023-07-13T15:36:17;4.13;;;2.10;;
67272;SDS011;54190;49.770;9.250;2023-07-13T15:38:44;3.03;;;1.97;;